createdAt,value
2023-04-22T05:44:48.533Z,16.60
2023-04-22T05:47:15.597Z,16.15
2023-04-22T05:49:43.166Z,15.80
2023-04-22T05:52:10.341Z,16.02
2023-04-22T05:54:37.841Z,15.15
2023-04-22T05:57:05.150Z,14.93
2023-04-22T05:59:32.302Z,15.48
2023-04-22T06:01:59.336Z,14.73
2023-04-22T06:04:26.751Z,14.30
2023-04-22T06:06:54.459Z,15.05
2023-04-22T06:09:22.588Z,14.63
2023-04-22T06:11:49.725Z,15.23
2023-04-22T06:14:16.908Z,14.43
2023-04-22T06:16:44.138Z,14.57
2023-04-22T06:19:11.547Z,13.85
2023-04-22T06:21:40.741Z,14.50
2023-04-22T06:24:09.235Z,14.50
2023-04-22T06:26:37.706Z,15.25
2023-04-22T06:29:05.524Z,15.00
2023-04-22T06:31:33.016Z,15.45
2023-04-22T06:34:00.686Z,15.45
2023-04-22T06:36:30.252Z,15.35
2023-04-22T06:38:57.785Z,14.98
2023-04-22T06:41:25.030Z,14.80
2023-04-22T06:43:52.032Z,14.75
2023-04-22T06:46:19.352Z,14.75
2023-04-22T06:48:46.571Z,13.88
2023-04-22T06:51:13.778Z,13.73
2023-04-22T06:53:40.968Z,13.88
2023-04-22T06:56:08.197Z,13.43
2023-04-22T06:58:35.241Z,12.77
2023-04-22T07:01:02.369Z,13.98
2023-04-22T07:03:29.574Z,13.23
2023-04-22T07:08:31.356Z,12.60
2023-04-22T07:10:58.351Z,12.75
2023-04-22T07:13:27.242Z,12.27
2023-04-22T07:15:54.653Z,11.75
2023-04-22T07:18:21.693Z,12.10
2023-04-22T07:20:48.713Z,12.32
2023-04-22T07:23:15.740Z,11.95
2023-04-22T07:25:42.813Z,11.30
2023-04-22T07:28:10.240Z,11.38
2023-04-22T07:30:37.427Z,11.67
2023-04-22T07:33:04.524Z,10.80
2023-04-22T07:35:31.901Z,11.63
2023-04-22T07:37:58.893Z,11.43
2023-04-22T07:40:25.984Z,10.75
2023-04-22T07:42:53.016Z,10.87
2023-04-22T07:45:20.062Z,10.87
2023-04-22T07:47:47.152Z,10.02
2023-04-22T07:50:14.421Z,9.90
2023-04-22T07:52:41.682Z,9.68
2023-04-22T07:55:09.118Z,9.55
2023-04-22T07:57:39.978Z,10.30
2023-04-22T08:00:09.745Z,9.50
2023-04-22T08:02:36.879Z,9.10
2023-04-22T08:05:04.463Z,9.77
2023-04-22T08:07:33.432Z,8.48
2023-04-22T08:10:01.177Z,9.00
2023-04-22T08:12:29.241Z,8.30
2023-04-22T08:14:58.085Z,8.00
2023-04-22T08:17:25.303Z,7.80
2023-04-22T08:19:52.333Z,7.70
2023-04-22T08:22:19.458Z,7.63
2023-04-22T08:24:46.706Z,7.50
2023-04-22T08:27:13.825Z,7.35
2023-04-22T08:29:41.213Z,7.57
2023-04-22T08:32:08.500Z,7.45
2023-04-22T08:34:36.718Z,7.03
2023-04-22T08:37:04.314Z,7.32
2023-04-22T08:39:31.499Z,6.93
2023-04-22T08:41:58.592Z,6.95
2023-04-22T08:44:26.976Z,6.40
2023-04-22T08:46:54.850Z,6.57
2023-04-22T08:49:25.435Z,7.00
2023-04-22T08:51:54.102Z,6.55
2023-04-22T08:54:21.564Z,6.72
2023-04-22T08:56:51.691Z,6.63
2023-04-22T08:59:20.775Z,6.50
2023-04-22T09:01:53.625Z,5.72
2023-04-22T09:04:21.103Z,5.70
2023-04-22T09:06:48.187Z,6.10
2023-04-22T09:09:15.911Z,6.10
2023-04-22T09:11:43.259Z,5.60
2023-04-22T09:14:10.466Z,5.43
2023-04-22T09:16:48.318Z,5.00
2023-04-22T09:19:15.968Z,6.10
2023-04-22T09:21:43.324Z,6.30
2023-04-22T09:24:12.242Z,5.30
2023-04-22T09:26:41.767Z,5.10
2023-04-22T09:29:15.484Z,5.68
2023-04-22T09:31:43.245Z,5.60
2023-04-22T09:34:10.614Z,5.67
2023-04-22T09:36:37.846Z,5.63
2023-04-22T09:39:08.219Z,5.13
2023-04-22T09:41:40.737Z,4.90
2023-04-22T09:44:20.917Z,4.80
2023-04-22T09:46:51.170Z,5.28
2023-04-22T09:49:18.331Z,5.35
2023-04-22T09:51:45.417Z,5.50
2023-04-22T09:54:12.664Z,5.15
2023-04-22T09:56:49.371Z,4.60
2023-04-22T09:59:31.581Z,6.32
2023-04-22T10:02:04.233Z,5.32
2023-04-22T10:04:31.547Z,4.90
2023-04-22T10:06:59.819Z,5.10
2023-04-22T10:09:26.928Z,4.88
2023-04-22T10:11:56.857Z,4.85
2023-04-22T10:14:25.329Z,5.15
2023-04-22T10:16:58.307Z,5.00
2023-04-22T10:19:27.591Z,4.90
2023-04-22T10:22:00.057Z,5.03
2023-04-22T10:27:02.967Z,7.20
2023-04-22T10:29:40.940Z,4.90
2023-04-22T10:32:11.756Z,4.50
2023-04-22T10:34:41.308Z,15.38
2023-04-22T10:37:11.815Z,6.40
2023-04-22T10:39:41.925Z,5.35
2023-04-22T10:42:12.811Z,5.25
2023-04-22T10:45:02.261Z,4.75
2023-04-22T10:47:38.381Z,5.22
2023-04-22T10:50:26.970Z,6.47
2023-04-22T10:53:00.361Z,4.55
2023-04-22T10:55:53.682Z,5.65
2023-04-22T10:58:24.944Z,4.80
2023-04-22T11:01:03.159Z,5.45
2023-04-22T11:03:31.368Z,4.78
2023-04-22T11:06:22.473Z,4.50
2023-04-22T11:08:52.297Z,7.95
2023-04-22T11:11:20.755Z,6.53
2023-04-22T11:13:52.136Z,4.38
2023-04-22T11:16:22.782Z,4.45
2023-04-22T11:18:50.336Z,5.40
2023-04-22T11:21:17.514Z,3.85
2023-04-22T11:23:53.246Z,4.43
2023-04-22T11:26:37.686Z,4.35
2023-04-22T11:29:05.040Z,5.13
2023-04-22T11:31:32.182Z,5.13
2023-04-22T11:34:00.543Z,5.57
2023-04-22T11:36:27.826Z,5.07
2023-04-22T11:38:56.559Z,3.85
2023-04-22T11:41:23.857Z,3.35
2023-04-22T11:43:50.837Z,5.03
2023-04-22T13:06:25.661Z,3.60
2023-04-22T13:08:52.888Z,5.93
2023-04-22T13:11:19.946Z,3.80
2023-04-22T13:13:46.991Z,4.68
2023-04-22T13:16:14.185Z,2.88
2023-04-22T13:18:41.219Z,5.47
2023-04-22T13:21:08.448Z,3.10
2023-04-22T13:23:35.703Z,3.97
2023-04-22T13:26:02.739Z,3.05
2023-04-22T13:28:29.738Z,5.53
2023-04-22T13:30:56.798Z,3.90
2023-04-22T13:33:23.924Z,4.47
2023-04-22T13:35:50.985Z,2.50
2023-04-22T13:38:18.061Z,3.33
2023-04-22T13:40:45.075Z,3.67
2023-04-22T13:43:12.420Z,3.30
2023-04-22T13:45:40.387Z,4.80
2023-04-22T13:48:07.372Z,3.10
2023-04-22T13:50:34.425Z,6.22
2023-04-22T13:53:01.511Z,3.63
2023-04-22T13:55:28.852Z,4.13
2023-04-22T13:57:55.873Z,6.20
2023-04-22T14:00:22.944Z,4.85
2023-04-22T14:02:50.405Z,4.03
2023-04-22T14:05:17.599Z,4.25
2023-04-22T14:07:44.770Z,5.38
2023-04-22T14:10:13.738Z,4.03
2023-04-22T14:12:40.907Z,4.13
2023-04-22T14:15:11.125Z,3.58
2023-04-22T14:17:39.724Z,4.72
2023-04-22T14:20:08.881Z,4.10
2023-04-22T14:22:35.843Z,4.70
2023-04-22T14:25:02.879Z,6.20
2023-04-22T14:27:29.878Z,4.82
2023-04-22T14:29:56.944Z,5.90
2023-04-22T14:32:25.363Z,4.03
2023-04-22T14:34:52.741Z,4.95
2023-04-22T14:37:20.369Z,3.53
2023-04-22T14:39:48.352Z,6.00
2023-04-22T14:42:17.855Z,3.72
2023-04-22T14:44:45.047Z,5.28
2023-04-22T14:47:12.023Z,5.43
2023-04-22T14:49:39.353Z,5.43
2023-04-22T14:52:06.962Z,6.43
2023-04-22T14:54:34.353Z,5.35
2023-04-22T14:57:01.661Z,4.85
2023-04-22T14:59:28.702Z,5.53
2023-04-22T15:01:55.852Z,5.03
2023-04-22T15:04:24.202Z,3.90
2023-04-22T15:06:51.553Z,4.35
2023-04-22T15:09:18.630Z,4.40
2023-04-22T15:11:45.624Z,4.78
2023-04-22T15:14:12.614Z,4.43
2023-04-22T15:16:39.632Z,8.48
2023-04-22T15:19:06.690Z,3.42
2023-04-22T15:21:33.715Z,3.78
2023-04-22T15:24:00.799Z,4.18
2023-04-22T15:26:27.970Z,5.60
2023-04-22T15:28:55.639Z,4.45
2023-04-22T15:33:50.451Z,6.35
2023-04-22T15:36:20.976Z,7.00
2023-04-22T15:38:47.991Z,5.95
2023-04-22T15:41:15.701Z,6.78
2023-04-22T15:43:42.724Z,8.50
2023-04-22T15:46:09.792Z,6.55
2023-04-22T15:48:36.921Z,6.70
2023-04-22T15:51:04.125Z,5.88
2023-04-22T15:53:31.167Z,6.00
2023-04-22T15:55:58.533Z,5.60
2023-04-22T15:58:25.542Z,4.90
2023-04-22T16:00:52.593Z,5.15
2023-04-22T16:03:19.959Z,5.03
2023-04-22T16:05:47.080Z,5.10
2023-04-22T16:08:14.320Z,5.53
2023-04-22T16:10:41.342Z,6.60
2023-04-22T16:13:08.377Z,6.43
2023-04-22T16:15:35.512Z,5.80
2023-04-22T16:18:03.213Z,5.30
2023-04-22T16:20:30.996Z,5.90
2023-04-22T16:22:58.633Z,6.70
2023-04-22T16:25:25.746Z,6.50
2023-04-22T16:27:52.763Z,7.70
2023-04-22T16:30:19.869Z,7.20
2023-04-22T16:32:46.938Z,7.13
2023-04-22T16:35:13.988Z,7.53
2023-04-22T17:07:07.135Z,8.30
2023-04-22T17:09:34.205Z,6.60
2023-04-22T17:12:01.731Z,5.53
2023-04-22T17:14:28.770Z,6.87
2023-04-22T17:16:55.891Z,7.33
2023-04-22T17:19:22.974Z,6.80
2023-04-22T17:21:49.976Z,5.53
2023-04-22T17:24:17.021Z,7.00
2023-04-22T17:26:44.080Z,6.40
2023-04-22T17:29:11.162Z,6.43
2023-04-22T17:31:38.966Z,7.33
2023-04-22T17:34:06.156Z,5.70
2023-04-22T17:36:33.224Z,6.20
2023-04-22T17:39:00.264Z,6.33
2023-04-22T17:41:27.323Z,6.70
2023-04-22T17:43:54.922Z,7.70
2023-04-22T17:46:21.984Z,6.27
2023-04-22T17:48:49.179Z,8.43
2023-04-22T17:51:16.260Z,7.80
2023-04-22T17:53:43.327Z,7.53
2023-04-22T17:56:10.680Z,9.60
2023-04-22T17:58:38.696Z,7.30
2023-04-22T18:01:07.234Z,6.60
2023-04-22T18:03:34.869Z,6.17
2023-04-22T18:06:02.113Z,7.03
2023-04-22T18:08:29.179Z,7.50
2023-04-22T18:10:56.131Z,7.90
2023-04-22T18:13:23.124Z,6.13
2023-04-22T18:15:50.180Z,6.77
2023-04-22T18:18:17.146Z,5.87
2023-04-22T18:20:45.653Z,7.30
2023-04-22T18:23:12.910Z,7.37
2023-04-22T18:25:40.042Z,6.23
2023-04-22T18:28:07.053Z,6.20
2023-04-22T18:30:34.055Z,6.83
2023-04-22T18:33:01.296Z,7.47
2023-04-22T18:35:28.405Z,6.47
2023-04-22T21:31:07.122Z,9.60
2023-04-22T21:33:34.312Z,10.83
2023-04-22T21:36:01.511Z,11.32
2023-04-22T21:38:29.304Z,11.20
2023-04-22T21:40:56.530Z,11.00
2023-04-22T21:43:23.712Z,11.60
2023-04-22T21:45:50.948Z,11.43
2023-04-22T21:48:18.007Z,11.30
2023-04-22T21:50:45.198Z,13.90
